Time,TemperatureF,DewpointF,PressureIn,WindDirection,WindDirectionDegrees,WindSpeedMPH,WindSpeedGustMPH,Humidity,HourlyPrecipIn,Conditions,Clouds,dailyrainin,SoftwareType,DateUTC
2013-07-02 00:06:00,64.8,63.0,29.86,East,89,0.0,6.0,94,0.00,,,0.00,weatherlink.com 1.10,2013-07-02 04:06:00,
2013-07-02 00:22:00,64.7,63.0,29.87,ESE,120,1.0,5.0,94,0.00,,,0.00,weatherlink.com 1.10,2013-07-02 04:22:00,
2013-07-02 00:37:00,64.7,63.0,29.87,NE,56,2.0,7.0,94,0.00,,,0.00,weatherlink.com 1.10,2013-07-02 04:37:00,
2013-07-02 00:52:00,64.7,63.0,29.87,East,100,0.0,5.0,94,0.00,,,0.00,weatherlink.com 1.10,2013-07-02 04:52:00,
2013-07-02 01:07:00,64.7,63.0,29.87,NNE,15,0.0,4.0,94,0.00,,,0.00,weatherlink.com 1.10,2013-07-02 05:07:00,
2013-07-02 01:22:00,64.7,63.0,29.86,NW,321,1.0,7.0,94,0.00,,,0.00,weatherlink.com 1.10,2013-07-02 05:22:00,
2013-07-02 01:37:00,64.4,63.0,29.84,ENE,78,0.0,4.0,94,0.00,,,0.00,weatherlink.com 1.10,2013-07-02 05:37:00,
2013-07-02 01:52:00,64.3,63.0,29.84,NE,52,3.0,5.0,94,0.00,,,0.00,weatherlink.com 1.10,2013-07-02 05:52:00,
2013-07-02 02:07:00,64.1,62.0,29.85,East,87,2.0,5.0,94,0.00,,,0.00,weatherlink.com 1.10,2013-07-02 06:07:00,
2013-07-02 02:22:00,64.2,63.0,29.85,SE,135,1.0,5.0,94,0.00,,,0.00,weatherlink.com 1.10,2013-07-02 06:22:00,
2013-07-02 02:37:00,64.1,62.0,29.84,SSE,150,1.0,3.0,94,0.00,,,0.00,weatherlink.com 1.10,2013-07-02 06:37:00,
2013-07-02 02:52:00,63.9,62.0,29.84,ESE,120,3.0,5.0,94,0.00,,,0.00,weatherlink.com 1.10,2013-07-02 06:52:00,
2013-07-02 03:07:00,63.6,62.0,29.84,NE,40,0.0,3.0,94,0.00,,,0.00,weatherlink.com 1.10,2013-07-02 07:07:00,
2013-07-02 03:22:00,63.3,62.0,29.85,ESE,112,0.0,4.0,95,0.00,,,0.00,weatherlink.com 1.10,2013-07-02 07:22:00,
2013-07-02 03:37:00,63.3,62.0,29.85,ESE,112,0.0,3.0,95,0.00,,,0.00,weatherlink.com 1.10,2013-07-02 07:37:00,
2013-07-02 03:52:00,63.4,62.0,29.85,East,84,2.0,5.0,95,0.00,,,0.00,weatherlink.com 1.10,2013-07-02 07:52:00,
2013-07-02 04:07:00,63.4,62.0,29.85,NE,53,3.0,5.0,95,0.00,,,0.00,weatherlink.com 1.10,2013-07-02 08:07:00,
2013-07-02 04:22:00,63.4,62.0,29.86,ESE,108,1.0,4.0,95,0.00,,,0.00,weatherlink.com 1.10,2013-07-02 08:22:00,
2013-07-02 04:37:00,63.5,62.0,29.86,SSW,203,2.0,4.0,95,0.00,,,0.00,weatherlink.com 1.10,2013-07-02 08:37:00,
2013-07-02 04:52:00,63.5,62.0,29.86,ENE,69,1.0,5.0,95,0.00,,,0.00,weatherlink.com 1.10,2013-07-02 08:52:00,
2013-07-02 05:07:00,63.6,62.0,29.85,ESE,105,1.0,5.0,95,0.00,,,0.00,weatherlink.com 1.10,2013-07-02 09:07:00,
2013-07-02 05:22:00,63.6,62.0,29.85,SSE,153,2.0,3.0,95,0.00,,,0.00,weatherlink.com 1.10,2013-07-02 09:22:00,
2013-07-02 05:37:00,63.6,62.0,29.85,NNE,15,0.0,4.0,95,0.00,,,0.00,weatherlink.com 1.10,2013-07-02 09:37:00,
2013-07-02 05:52:00,63.6,62.0,29.85,East,98,4.0,4.0,95,0.00,,,0.00,weatherlink.com 1.10,2013-07-02 09:52:00,
2013-07-02 06:07:00,63.6,62.0,29.86,East,96,1.0,4.0,95,0.00,,,0.00,weatherlink.com 1.10,2013-07-02 10:07:00,
2013-07-02 06:22:00,63.6,62.0,29.86,ESE,105,0.0,3.0,95,0.00,,,0.00,weatherlink.com 1.10,2013-07-02 10:22:00,
2013-07-02 06:37:00,63.6,62.0,29.86,ENE,75,0.0,4.0,95,0.00,,,0.00,weatherlink.com 1.10,2013-07-02 10:37:00,
2013-07-02 06:52:00,63.6,62.0,29.86,ESE,105,2.0,3.0,95,0.00,,,0.00,weatherlink.com 1.10,2013-07-02 10:52:00,
2013-07-02 07:07:00,63.6,62.0,29.87,SE,139,3.0,3.0,95,0.00,,,0.00,weatherlink.com 1.10,2013-07-02 11:07:00,
2013-07-02 07:22:00,63.7,62.0,29.87,ESE,105,1.0,4.0,95,0.00,,,0.00,weatherlink.com 1.10,2013-07-02 11:22:00,
2013-07-02 07:37:00,63.8,63.0,29.88,ESE,112,2.0,5.0,96,0.00,,,0.00,weatherlink.com 1.10,2013-07-02 11:37:00,
2013-07-02 07:52:00,64.0,63.0,29.88,SE,135,1.0,3.0,95,0.00,,,0.00,weatherlink.com 1.10,2013-07-02 11:52:00,
2013-07-02 08:07:00,64.1,63.0,29.89,SE,130,0.0,3.0,95,0.00,,,0.00,weatherlink.com 1.10,2013-07-02 12:07:00,
2013-07-02 08:22:00,64.4,63.0,29.89,East,93,1.0,4.0,95,0.00,,,0.00,weatherlink.com 1.10,2013-07-02 12:22:00,
2013-07-02 08:37:00,64.8,63.0,29.89,ESE,108,3.0,5.0,95,0.00,,,0.00,weatherlink.com 1.10,2013-07-02 12:37:00,
2013-07-02 08:52:00,65.0,64.0,29.89,East,99,0.0,4.0,95,0.00,,,0.00,weatherlink.com 1.10,2013-07-02 12:52:00,
2013-07-02 09:07:00,65.3,64.0,29.89,East,96,3.0,5.0,94,0.00,,,0.00,weatherlink.com 1.10,2013-07-02 13:07:00,
2013-07-02 09:22:00,66.0,64.0,29.89,SE,125,1.0,4.0,94,0.00,,,0.00,weatherlink.com 1.10,2013-07-02 13:22:00,
2013-07-02 09:37:00,67.1,65.0,29.89,SE,129,2.0,5.0,91,0.00,,,0.00,weatherlink.com 1.10,2013-07-02 13:37:00,
2013-07-02 09:52:00,67.6,65.0,29.89,SE,134,2.0,5.0,91,0.00,,,0.00,weatherlink.com 1.10,2013-07-02 13:52:00,
2013-07-02 10:07:00,68.0,65.0,29.89,SE,132,1.0,5.0,90,0.00,,,0.00,weatherlink.com 1.10,2013-07-02 14:07:00,
2013-07-02 10:22:00,68.8,66.0,29.89,ESE,117,0.0,6.0,89,0.00,,,0.00,weatherlink.com 1.10,2013-07-02 14:22:00,
2013-07-02 10:37:00,69.8,66.0,29.89,East,101,3.0,6.0,87,0.00,,,0.00,weatherlink.com 1.10,2013-07-02 14:37:00,
2013-07-02 10:52:00,69.7,65.0,29.89,SE,134,1.0,4.0,86,0.00,,,0.00,weatherlink.com 1.10,2013-07-02 14:52:00,
2013-07-02 11:07:00,70.0,66.0,29.90,NNE,30,2.0,4.0,86,0.00,,,0.00,weatherlink.com 1.10,2013-07-02 15:07:00,
2013-07-02 11:23:00,71.0,66.0,29.90,ESE,105,1.0,5.0,84,0.00,,,0.00,weatherlink.com 1.10,2013-07-02 15:23:00,
2013-07-02 11:38:00,70.8,66.0,29.90,East,101,3.0,4.0,85,0.00,,,0.00,weatherlink.com 1.10,2013-07-02 15:38:00,
2013-07-02 11:53:00,71.1,66.0,29.90,ESE,114,1.0,4.0,83,0.00,,,0.00,weatherlink.com 1.10,2013-07-02 15:53:00,
2013-07-02 12:08:00,71.3,66.0,29.89,ESE,109,1.0,5.0,83,0.00,,,0.00,weatherlink.com 1.10,2013-07-02 16:08:00,
2013-07-02 12:23:00,72.4,67.0,29.89,East,79,3.0,3.0,84,0.00,,,0.00,weatherlink.com 1.10,2013-07-02 16:23:00,
2013-07-02 12:38:00,73.4,67.0,29.89,ESE,102,4.0,4.0,80,0.00,,,0.00,weatherlink.com 1.10,2013-07-02 16:38:00,
2013-07-02 12:53:00,72.3,67.0,29.90,ESE,102,1.0,4.0,84,0.00,,,0.00,weatherlink.com 1.10,2013-07-02 16:53:00,
2013-07-02 13:08:00,73.2,67.0,29.90,East,97,3.0,9.0,82,0.00,,,0.00,weatherlink.com 1.10,2013-07-02 17:08:00,
2013-07-02 13:23:00,75.3,67.0,29.89,SE,130,3.0,11.0,74,0.00,,,0.00,weatherlink.com 1.10,2013-07-02 17:23:00,
2013-07-02 13:38:00,75.9,67.0,29.89,SE,143,2.0,4.0,73,0.00,,,0.00,weatherlink.com 1.10,2013-07-02 17:38:00,
2013-07-02 13:53:00,76.1,66.0,29.89,SE,138,2.0,8.0,72,0.00,,,0.00,weatherlink.com 1.10,2013-07-02 17:53:00,
2013-07-02 14:08:00,76.2,66.0,29.89,SE,134,3.0,6.0,71,0.00,,,0.00,weatherlink.com 1.10,2013-07-02 18:08:00,
2013-07-02 14:23:00,76.5,66.0,29.89,SW,225,1.0,7.0,71,0.00,,,0.00,weatherlink.com 1.10,2013-07-02 18:23:00,
2013-07-02 14:38:00,76.8,67.0,29.88,NNE,28,3.0,6.0,71,0.00,,,0.00,weatherlink.com 1.10,2013-07-02 18:38:00,
2013-07-02 14:53:00,77.6,66.0,29.88,SSW,212,1.0,4.0,68,0.00,,,0.00,weatherlink.com 1.10,2013-07-02 18:53:00,
2013-07-02 15:08:00,78.0,67.0,29.88,ESE,122,1.0,4.0,69,0.00,,,0.00,weatherlink.com 1.10,2013-07-02 19:08:00,
2013-07-02 15:23:00,77.9,66.0,29.87,East,101,2.0,5.0,67,0.00,,,0.00,weatherlink.com 1.10,2013-07-02 19:23:00,
2013-07-02 15:38:00,77.0,66.0,29.87,SSW,194,2.0,3.0,68,0.00,,,0.00,weatherlink.com 1.10,2013-07-02 19:38:00,
2013-07-02 15:53:00,77.6,67.0,29.87,ESE,112,1.0,2.0,69,0.00,,,0.00,weatherlink.com 1.10,2013-07-02 19:53:00,
2013-07-02 16:08:00,77.5,67.0,29.87,SSW,201,0.0,3.0,70,0.00,,,0.00,weatherlink.com 1.10,2013-07-02 20:08:00,
2013-07-02 16:23:00,79.0,68.0,29.86,SSE,153,0.0,4.0,69,0.00,,,0.00,weatherlink.com 1.10,2013-07-02 20:23:00,
2013-07-02 16:38:00,77.6,67.0,29.86,SW,219,0.0,3.0,70,0.00,,,0.00,weatherlink.com 1.10,2013-07-02 20:38:00,
2013-07-02 16:53:00,76.6,68.0,29.86,SW,218,0.0,1.0,75,0.00,,,0.00,weatherlink.com 1.10,2013-07-02 20:53:00,
2013-07-02 17:08:00,76.2,69.0,29.86,SW,215,0.0,1.0,77,0.00,,,0.00,weatherlink.com 1.10,2013-07-02 21:08:00,
2013-07-02 17:23:00,76.8,67.0,29.86,WSW,238,0.0,3.0,72,0.00,,,0.00,weatherlink.com 1.10,2013-07-02 21:23:00,
2013-07-02 17:38:00,73.3,67.0,29.88,East,91,0.0,4.0,80,0.23,,,0.23,weatherlink.com 1.10,2013-07-02 21:38:00,
2013-07-02 17:53:00,70.3,67.0,29.88,SSW,200,0.0,0.0,89,0.31,,,0.31,weatherlink.com 1.10,2013-07-02 21:53:00,
2013-07-02 18:08:00,70.3,68.0,29.88,West,277,0.0,2.0,91,0.31,,,0.31,weatherlink.com 1.10,2013-07-02 22:08:00,
2013-07-02 18:23:00,71.3,69.0,29.88,NW,319,0.0,1.0,92,0.31,,,0.31,weatherlink.com 1.10,2013-07-02 22:23:00,
2013-07-02 18:38:00,71.3,68.0,29.88,NNE,32,0.0,3.0,90,0.06,,,0.31,weatherlink.com 1.10,2013-07-02 22:38:00,
2013-07-02 18:53:00,71.8,69.0,29.88,North,359,0.0,1.0,91,0.00,,,0.31,weatherlink.com 1.10,2013-07-02 22:53:00,
2013-07-02 19:08:00,71.6,69.0,29.88,NW,305,0.0,1.0,91,0.00,,,0.31,weatherlink.com 1.10,2013-07-02 23:08:00,
2013-07-02 19:23:00,70.6,68.0,29.89,West,266,0.0,1.0,90,0.00,,,0.31,weatherlink.com 1.10,2013-07-02 23:23:00,
2013-07-02 19:38:00,69.8,67.0,29.89,NNE,25,0.0,2.0,91,0.00,,,0.31,weatherlink.com 1.10,2013-07-02 23:38:00,
2013-07-02 19:53:00,69.5,68.0,29.89,NNE,16,0.0,0.0,93,0.00,,,0.31,weatherlink.com 1.10,2013-07-02 23:53:00,
2013-07-02 20:08:00,69.0,67.0,29.89,North,351,0.0,0.0,93,0.00,,,0.31,weatherlink.com 1.10,2013-07-03 00:08:00,
2013-07-02 20:23:00,68.2,66.0,29.89,North,351,0.0,0.0,93,0.00,,,0.31,weatherlink.com 1.10,2013-07-03 00:23:00,
2013-07-02 20:38:00,67.6,66.0,29.89,North,352,0.0,0.0,94,0.00,,,0.31,weatherlink.com 1.10,2013-07-03 00:38:00,
2013-07-02 20:53:00,67.1,65.0,29.90,North,349,0.0,0.0,94,0.00,,,0.31,weatherlink.com 1.10,2013-07-03 00:53:00,
2013-07-02 21:08:00,66.6,65.0,29.91,North,351,0.0,0.0,94,0.00,,,0.31,weatherlink.com 1.10,2013-07-03 01:08:00,
2013-07-02 21:23:00,66.4,65.0,29.91,North,351,0.0,0.0,95,0.00,,,0.31,weatherlink.com 1.10,2013-07-03 01:23:00,
2013-07-02 21:38:00,66.3,65.0,29.91,ENE,58,0.0,0.0,95,0.00,,,0.31,weatherlink.com 1.10,2013-07-03 01:38:00,
2013-07-02 21:53:00,66.1,65.0,29.92,ENE,58,0.0,0.0,96,0.00,,,0.31,weatherlink.com 1.10,2013-07-03 01:53:00,
2013-07-02 22:08:00,65.9,65.0,29.92,ENE,58,0.0,0.0,96,0.00,,,0.31,weatherlink.com 1.10,2013-07-03 02:08:00,
2013-07-02 22:23:00,65.7,65.0,29.93,ENE,58,0.0,0.0,96,0.00,,,0.31,weatherlink.com 1.10,2013-07-03 02:23:00,
2013-07-02 22:38:00,65.8,65.0,29.93,ENE,58,0.0,0.0,96,0.00,,,0.31,weatherlink.com 1.10,2013-07-03 02:38:00,
2013-07-02 22:53:00,65.9,65.0,29.93,ENE,58,0.0,0.0,96,0.00,,,0.31,weatherlink.com 1.10,2013-07-03 02:53:00,
2013-07-02 23:09:00,65.8,65.0,29.94,ENE,58,0.0,0.0,96,0.00,,,0.31,weatherlink.com 1.10,2013-07-03 03:09:00,
2013-07-02 23:24:00,65.4,64.0,29.94,East,101,0.0,0.0,96,0.00,,,0.31,weatherlink.com 1.10,2013-07-03 03:24:00,
2013-07-02 23:39:00,65.0,64.0,29.94,ESE,102,0.0,0.0,96,0.00,,,0.31,weatherlink.com 1.10,2013-07-03 03:39:00,
2013-07-02 23:54:00,64.9,64.0,29.94,East,101,0.0,0.0,97,0.00,,,0.31,weatherlink.com 1.10,2013-07-03 03:54:00,